Time;durP1;ratioP1;P1;durP2;ratioP2;P2;SDS_P1;SDS_P2;PMS_P1;PMS_P2;Temp;Humidity;BMP_temperature;BMP_pressure;BME280_temperature;BME280_humidity;BME280_pressure;Samples;Min_cycle;Max_cycle;Signal;HPM_P1;HPM_P2
2023/10/14 00:02:15;;;;;;;1.00;1.00;;;15.20;99.90;;;;;;5019028;28;20410;-91
2023/10/14 00:04:41;;;;;;;0.98;0.98;;;15.10;99.90;;;;;;5018573;28;20056;-90
2023/10/14 00:07:08;;;;;;;1.00;1.00;;;15.00;99.90;;;;;;5030157;28;20049;-91
2023/10/14 00:09:42;;;;;;;1.00;1.00;;;15.30;99.90;;;;;;5048474;28;20053;-90
2023/10/14 00:12:13;;;;;;;1.10;1.10;;;15.20;99.90;;;;;;5018956;28;20132;-88
2023/10/14 00:14:42;;;;;;;1.02;1.02;;;15.20;99.90;;;;;;5044048;28;20063;-91
2023/10/14 00:17:12;;;;;;;1.10;1.10;;;14.80;99.90;;;;;;5016231;28;20414;-90
2023/10/14 00:19:38;;;;;;;1.00;1.00;;;15.30;99.90;;;;;;5014848;28;20052;-89
2023/10/14 00:22:07;;;;;;;1.00;1.00;;;15.20;99.90;;;;;;5023398;28;20041;-89
2023/10/14 00:24:37;;;;;;;1.10;1.10;;;15.00;99.90;;;;;;5017699;28;20126;-88
2023/10/14 00:27:07;;;;;;;1.10;1.10;;;14.90;99.90;;;;;;5029676;28;20056;-90
2023/10/14 00:29:34;;;;;;;1.00;1.00;;;15.30;99.90;;;;;;5040281;28;20119;-90
2023/10/14 00:32:03;;;;;;;1.00;1.00;;;15.10;99.90;;;;;;5033232;28;20479;-89
2023/10/14 00:34:29;;;;;;;1.10;1.10;;;15.10;99.90;;;;;;5017771;28;20045;-89
2023/10/14 00:36:56;;;;;;;1.00;1.00;;;14.80;99.90;;;;;;5041335;28;20044;-89
2023/10/14 00:39:32;;;;;;;1.10;1.10;;;15.30;99.90;;;;;;5036242;28;20075;-88
2023/10/14 00:41:58;;;;;;;1.00;1.00;;;15.00;99.90;;;;;;5047095;28;20052;-88
2023/10/14 00:44:25;;;;;;;1.00;1.00;;;15.20;99.90;;;;;;5031325;28;20135;-87
2023/10/14 00:46:52;;;;;;;1.00;1.00;;;15.30;99.90;;;;;;5032587;28;20056;-86
2023/10/14 00:49:23;;;;;;;1.00;1.00;;;14.70;99.90;;;;;;5042313;28;20733;-86
2023/10/14 00:51:59;;;;;;;1.00;1.00;;;15.30;99.90;;;;;;5032583;28;20049;-86
2023/10/14 00:57:05;;;;;;;1.00;1.00;;;15.20;99.90;;;;;;5024749;28;20088;-85
2023/10/14 00:59:31;;;;;;;1.00;1.00;;;15.10;99.90;;;;;;5011050;28;20132;-90
2023/10/14 01:01:58;;;;;;;1.05;1.05;;;14.70;99.90;;;;;;5016193;28;20136;-88
2023/10/14 01:04:33;;;;;;;1.00;1.00;;;15.00;99.90;;;;;;5013146;28;20037;-88
2023/10/14 01:10:13;;;;;;;0.90;0.90;;;14.60;99.90;;;;;;5029479;28;20498;-87
2023/10/14 01:12:27;;;;;;;0.93;0.93;;;14.50;99.90;;;;;;5025251;28;20594;-92
2023/10/14 01:14:54;;;;;;;1.00;1.00;;;14.70;99.90;;;;;;5034447;28;20037;-87
2023/10/14 01:17:30;;;;;;;0.80;0.80;;;14.60;99.90;;;;;;5030741;28;20041;-88
2023/10/14 01:20:10;;;;;;;0.80;0.80;;;14.70;99.90;;;;;;5057190;28;20037;-88
2023/10/14 01:22:38;;;;;;;0.90;0.90;;;14.60;99.90;;;;;;5013221;28;20147;-88
2023/10/14 01:25:06;;;;;;;0.80;0.80;;;14.30;99.90;;;;;;5025226;28;20099;-89
2023/10/14 01:27:35;;;;;;;0.90;0.90;;;14.40;99.90;;;;;;5018793;28;20551;-92
2023/10/14 01:30:08;;;;;;;0.80;0.80;;;14.40;99.90;;;;;;5017488;28;20144;-90
2023/10/14 01:32:48;;;;;;;0.82;0.82;;;14.40;99.90;;;;;;5016764;28;20039;-89
2023/10/14 01:35:31;;;;;;;0.80;0.80;;;14.30;99.90;;;;;;5013308;28;20128;-90
2023/10/14 01:37:59;;;;;;;0.75;0.75;;;14.20;99.90;;;;;;5016718;28;20450;-92
2023/10/14 01:43:05;;;;;;;0.80;0.80;;;14.50;99.90;;;;;;5036150;28;20095;-92
2023/10/14 01:45:39;;;;;;;0.90;0.90;;;14.20;99.90;;;;;;5019612;28;20044;-91
2023/10/14 01:50:46;;;;;;;0.80;0.80;;;14.30;99.90;;;;;;5040593;28;20136;-94
2023/10/14 01:53:21;;;;;;;0.80;0.80;;;14.30;99.90;;;;;;5020230;28;20671;-94
2023/10/14 01:56:01;;;;;;;0.82;0.82;;;14.10;99.90;;;;;;5021515;28;20557;-92
2023/10/14 02:01:14;;;;;;;0.90;0.90;;;14.00;99.90;;;;;;5032535;28;20053;-93
2023/10/14 02:03:56;;;;;;;0.80;0.80;;;14.00;99.90;;;;;;5026784;28;20048;-95
2023/10/14 02:06:35;;;;;;;0.80;0.80;;;13.80;99.90;;;;;;5013106;28;20106;-93
2023/10/14 02:09:04;;;;;;;0.80;0.80;;;13.70;99.90;;;;;;5016482;28;20060;-92
2023/10/14 02:11:33;;;;;;;0.80;0.80;;;13.70;99.90;;;;;;5027981;28;20076;-93
2023/10/14 02:14:06;;;;;;;0.80;0.80;;;13.50;99.90;;;;;;5023615;28;20118;-93
2023/10/14 02:22:28;;;;;;;0.80;0.80;;;13.30;99.90;;;;;;5045104;28;20394;-93
2023/10/14 02:28:53;;;;;;;;;;;;;;;;;;;;;
2023/10/14 02:31:29;;;;;;;0.80;0.80;;;13.00;99.90;;;;;;4957009;28;20121;-93
2023/10/14 02:34:04;;;;;;;0.80;0.80;;;12.90;99.90;;;;;;5016064;28;20049;-95
2023/10/14 02:36:41;;;;;;;0.90;0.90;;;13.00;99.90;;;;;;5020246;28;20059;-95
2023/10/14 02:47:08;;;;;;;1.00;1.00;;;12.80;99.90;;;;;;4968748;28;20054;-94
2023/10/14 02:53:31;;;;;;;;;;;;;;;;;;;;;
2023/10/14 02:59:48;;;;;;;1.10;1.10;;;12.60;99.90;;;;;;4974162;28;20100;-95
2023/10/14 03:02:26;;;;;;;0.90;0.90;;;12.60;99.90;;;;;;5026162;28;20044;-95
2023/10/14 03:07:33;;;;;;;1.00;1.00;;;12.50;99.90;;;;;;5043218;28;20049;-94
2023/10/14 03:12:50;;;;;;;0.90;0.90;;;12.30;99.90;;;;;;5070563;28;20052;-94
2023/10/14 03:15:20;;;;;;;0.90;0.90;;;12.30;99.90;;;;;;5024753;28;20094;-94
2023/10/14 03:18:01;;;;;;;0.90;0.90;;;12.30;99.90;;;;;;5025746;28;20076;-93
2023/10/14 03:22:55;;;;;;;0.90;0.90;;;12.20;99.90;;;;;;5040547;28;20124;-92
2023/10/14 03:25:24;;;;;;;0.93;0.93;;;12.20;99.90;;;;;;5044471;28;20052;-92
2023/10/14 03:27:51;;;;;;;1.00;1.00;;;12.20;99.90;;;;;;5017818;28;20149;-91
2023/10/14 03:30:20;;;;;;;0.98;0.98;;;12.10;99.90;;;;;;5057854;28;20513;-90
2023/10/14 03:32:46;;;;;;;0.90;0.90;;;12.10;99.90;;;;;;5042834;28;20041;-92
2023/10/14 03:35:13;;;;;;;1.00;1.00;;;12.00;99.90;;;;;;5021670;28;20136;-92
2023/10/14 03:37:45;;;;;;;0.90;0.90;;;12.10;99.90;;;;;;5035947;28;20662;-92
2023/10/14 03:43:07;;;;;;;0.90;0.90;;;12.00;99.90;;;;;;5037842;28;20098;-92
2023/10/14 03:45:45;;;;;;;0.90;0.90;;;12.00;99.90;;;;;;5022458;28;20041;-92
2023/10/14 03:48:13;;;;;;;0.90;0.90;;;12.00;99.90;;;;;;5056985;28;20449;-92
2023/10/14 03:50:39;;;;;;;0.90;0.90;;;11.90;99.90;;;;;;5046478;28;20088;-92
2023/10/14 03:53:08;;;;;;;0.82;0.82;;;11.90;99.90;;;;;;5041012;28;20061;-90
2023/10/14 03:55:34;;;;;;;0.90;0.90;;;11.90;99.90;;;;;;5054510;28;20498;-91
2023/10/14 03:58:05;;;;;;;0.90;0.90;;;11.90;99.90;;;;;;5016777;28;20086;-93
2023/10/14 04:00:37;;;;;;;1.00;1.00;;;11.90;99.90;;;;;;5017581;28;20073;-91
2023/10/14 04:03:11;;;;;;;0.95;0.95;;;11.80;99.90;;;;;;5025510;28;20406;-91
2023/10/14 04:05:52;;;;;;;0.90;0.90;;;11.80;99.90;;;;;;5021274;28;20422;-90
2023/10/14 04:08:30;;;;;;;0.85;0.85;;;11.80;99.90;;;;;;5033311;28;20045;-87
2023/10/14 04:11:10;;;;;;;0.90;0.90;;;11.70;99.90;;;;;;5040319;28;21672;-89
2023/10/14 04:13:40;;;;;;;0.98;0.98;;;11.70;99.90;;;;;;5022873;28;20128;-89
2023/10/14 04:16:07;;;;;;;0.90;0.90;;;11.60;99.90;;;;;;5071716;28;20051;-87
2023/10/14 04:18:33;;;;;;;0.90;0.90;;;11.60;99.90;;;;;;5022293;28;20044;-89
2023/10/14 04:21:35;;;;;;;0.93;0.93;;;11.50;99.90;;;;;;5051861;28;20048;-89
2023/10/14 04:24:08;;;;;;;0.90;0.90;;;11.50;99.90;;;;;;5036157;28;20450;-88
2023/10/14 04:26:35;;;;;;;1.10;1.10;;;11.50;99.90;;;;;;5029511;28;20584;-89
2023/10/14 04:29:04;;;;;;;0.90;0.90;;;11.40;99.90;;;;;;5026738;28;20106;-89
2023/10/14 04:31:39;;;;;;;0.90;0.90;;;11.40;99.90;;;;;;5039803;28;20568;-88
2023/10/14 04:34:07;;;;;;;1.08;1.08;;;11.50;99.90;;;;;;5034890;28;20458;-87
2023/10/14 04:36:37;;;;;;;0.90;0.90;;;11.40;99.90;;;;;;5039316;28;20049;-88
2023/10/14 04:39:07;;;;;;;0.90;0.90;;;11.40;99.90;;;;;;5028606;28;20320;-89
2023/10/14 04:41:36;;;;;;;1.00;1.00;;;11.40;99.90;;;;;;5018800;28;20114;-88
2023/10/14 04:44:02;;;;;;;0.98;0.98;;;11.30;99.90;;;;;;5020051;28;20048;-89
2023/10/14 04:46:45;;;;;;;0.95;0.95;;;11.30;99.90;;;;;;5019879;28;20049;-87
2023/10/14 04:49:15;;;;;;;0.95;0.95;;;11.20;99.90;;;;;;5018338;28;20053;-88
2023/10/14 04:51:46;;;;;;;0.98;0.98;;;11.30;99.90;;;;;;5048516;28;20049;-88
2023/10/14 04:54:19;;;;;;;0.95;0.95;;;11.20;99.90;;;;;;5018384;28;20491;-89
2023/10/14 04:56:45;;;;;;;0.90;0.90;;;11.20;99.90;;;;;;5019067;28;20052;-88
2023/10/14 04:59:12;;;;;;;1.08;1.08;;;11.20;99.90;;;;;;5035482;28;20045;-89
2023/10/14 05:01:41;;;;;;;1.00;1.00;;;11.20;99.90;;;;;;5032901;28;20501;-87
2023/10/14 05:04:08;;;;;;;1.10;1.10;;;11.10;99.90;;;;;;5040106;28;20477;-87
2023/10/14 05:06:42;;;;;;;1.02;1.02;;;11.10;99.90;;;;;;5031294;28;20123;-87
2023/10/14 05:09:25;;;;;;;1.00;1.00;;;11.10;99.90;;;;;;5030765;28;20072;-86
2023/10/14 05:11:52;;;;;;;1.00;1.00;;;11.00;99.90;;;;;;5062320;28;20083;-87
2023/10/14 05:14:21;;;;;;;1.02;1.02;;;11.00;99.90;;;;;;5031232;28;20045;-89
2023/10/14 05:17:32;;;;;;;1.00;1.00;;;11.00;99.90;;;;;;5033929;28;20041;-88
2023/10/14 05:19:41;;;;;;;0.90;0.90;;;11.00;99.90;;;;;;5028167;28;20080;-87
2023/10/14 05:25:15;;;;;;;1.10;1.10;;;11.00;99.90;;;;;;5028571;28;20037;-86
2023/10/14 05:27:55;;;;;;;1.10;1.10;;;11.00;99.90;;;;;;5034048;28;20083;-87
2023/10/14 05:30:22;;;;;;;1.00;1.00;;;11.00;99.90;;;;;;5031157;28;20049;-86
2023/10/14 05:32:49;;;;;;;1.00;1.00;;;11.00;99.90;;;;;;5030618;28;20045;-86
2023/10/14 05:35:14;;;;;;;1.00;1.00;;;10.90;99.90;;;;;;5032590;28;20055;-86
2023/10/14 05:37:45;;;;;;;1.00;1.00;;;10.90;99.90;;;;;;5069405;28;20052;-86
2023/10/14 05:40:14;;;;;;;1.00;1.00;;;10.90;99.90;;;;;;5016711;28;20124;-88
2023/10/14 05:42:47;;;;;;;1.10;1.10;;;10.90;99.90;;;;;;5028111;28;20076;-87
2023/10/14 05:45:13;;;;;;;1.00;1.00;;;10.80;99.90;;;;;;5036067;28;20064;-86
2023/10/14 05:47:42;;;;;;;1.00;1.00;;;10.90;99.90;;;;;;5036487;28;20547;-86
2023/10/14 05:50:14;;;;;;;1.00;1.00;;;10.70;99.90;;;;;;5038571;28;20128;-88
2023/10/14 05:52:41;;;;;;;1.10;1.10;;;10.70;99.90;;;;;;5021284;28;20556;-89
2023/10/14 05:55:09;;;;;;;1.00;1.00;;;10.80;99.90;;;;;;5032053;28;20055;-85
2023/10/14 05:57:39;;;;;;;1.00;1.00;;;10.80;99.90;;;;;;5034030;28;20056;-86
2023/10/14 06:00:20;;;;;;;1.00;1.00;;;10.70;99.90;;;;;;5020149;28;20052;-88
2023/10/14 06:02:52;;;;;;;1.10;1.10;;;10.70;99.90;;;;;;5010356;28;20037;-85
2023/10/14 06:05:23;;;;;;;1.10;1.10;;;10.70;99.90;;;;;;5063247;28;20501;-84
2023/10/14 06:07:50;;;;;;;1.00;1.00;;;10.70;99.90;;;;;;5035968;28;20433;-87
2023/10/14 06:10:23;;;;;;;1.00;1.00;;;10.80;99.90;;;;;;5020067;28;20064;-87
2023/10/14 06:12:50;;;;;;;1.10;1.10;;;10.80;99.90;;;;;;5009435;28;20661;-87
2023/10/14 06:15:17;;;;;;;1.00;1.00;;;10.80;99.90;;;;;;5064983;28;20052;-88
2023/10/14 06:17:50;;;;;;;1.00;1.00;;;10.90;99.90;;;;;;5015436;28;20565;-85
2023/10/14 06:20:16;;;;;;;1.00;1.00;;;10.80;99.90;;;;;;5024483;28;20040;-86
2023/10/14 06:22:43;;;;;;;1.00;1.00;;;10.90;99.90;;;;;;5067355;28;20057;-85
2023/10/14 06:25:15;;;;;;;1.10;1.10;;;10.90;99.90;;;;;;5042094;28;20452;-86
2023/10/14 06:27:45;;;;;;;1.10;1.10;;;10.90;99.90;;;;;;5026693;28;20077;-85
2023/10/14 06:30:19;;;;;;;1.10;1.10;;;11.00;99.90;;;;;;5033154;28;20544;-86
2023/10/14 06:32:49;;;;;;;1.13;1.13;;;11.10;99.90;;;;;;5031605;28;20517;-86
2023/10/14 06:35:17;;;;;;;1.10;1.10;;;11.10;99.90;;;;;;5030009;28;20052;-87
2023/10/14 06:37:46;;;;;;;1.00;1.00;;;11.20;99.90;;;;;;5038704;28;20139;-86
2023/10/14 06:40:18;;;;;;;1.10;1.10;;;11.30;99.90;;;;;;5024705;28;20050;-85
2023/10/14 06:42:48;;;;;;;1.10;1.10;;;11.40;99.90;;;;;;5028379;28;21892;-85
2023/10/14 06:45:17;;;;;;;1.10;1.10;;;11.40;99.90;;;;;;5010274;28;20040;-86
2023/10/14 06:47:51;;;;;;;1.10;1.10;;;11.40;99.90;;;;;;5025946;28;20056;-84
2023/10/14 06:50:23;;;;;;;1.20;1.20;;;11.50;99.90;;;;;;5035232;28;20064;-84
2023/10/14 06:52:53;;;;;;;1.10;1.10;;;11.60;99.90;;;;;;5021826;28;20049;-85
2023/10/14 06:55:22;;;;;;;1.10;1.10;;;11.70;99.90;;;;;;5049532;28;20049;-85
2023/10/14 06:57:53;;;;;;;1.10;1.10;;;11.80;99.90;;;;;;5022794;28;20182;-84
2023/10/14 07:00:25;;;;;;;1.10;1.10;;;11.80;99.90;;;;;;5027500;28;20049;-84
2023/10/14 07:02:53;;;;;;;1.00;1.00;;;11.90;99.90;;;;;;5032818;28;20182;-86
2023/10/14 07:05:20;;;;;;;1.10;1.10;;;11.90;99.90;;;;;;5033549;28;20069;-82
2023/10/14 07:07:48;;;;;;;1.00;1.00;;;12.00;99.90;;;;;;5025660;28;20052;-82
2023/10/14 07:10:14;;;;;;;1.20;1.20;;;12.10;99.90;;;;;;5023718;28;20131;-84
2023/10/14 07:12:40;;;;;;;1.10;1.10;;;12.20;99.90;;;;;;5027601;28;20614;-85
2023/10/14 07:15:12;;;;;;;1.20;1.20;;;12.20;99.90;;;;;;5028394;28;20048;-83
2023/10/14 07:17:42;;;;;;;1.02;1.02;;;12.30;99.90;;;;;;5011021;28;20413;-83
2023/10/14 07:20:12;;;;;;;1.20;1.20;;;12.30;99.90;;;;;;5027937;28;20045;-84
2023/10/14 07:22:42;;;;;;;1.05;1.05;;;12.40;99.90;;;;;;5027573;28;20078;-86
2023/10/14 07:25:11;;;;;;;1.30;1.30;;;12.50;99.90;;;;;;5036583;28;20406;-85
2023/10/14 07:27:39;;;;;;;1.13;1.13;;;12.60;99.90;;;;;;5059679;28;20048;-85
2023/10/14 07:30:15;;;;;;;1.10;1.10;;;12.60;99.90;;;;;;5024755;28;20045;-83
2023/10/14 07:32:45;;;;;;;1.10;1.10;;;12.70;99.90;;;;;;5056652;28;20632;-84
2023/10/14 07:35:16;;;;;;;1.23;1.23;;;12.70;99.90;;;;;;5033818;28;20044;-84
2023/10/14 07:37:44;;;;;;;1.20;1.20;;;12.80;99.90;;;;;;5029914;28;20044;-87
2023/10/14 07:40:22;;;;;;;1.23;1.23;;;12.90;99.90;;;;;;5029724;28;20045;-82
2023/10/14 07:42:56;;;;;;;1.27;1.27;;;13.00;99.90;;;;;;5036605;28;20556;-84
2023/10/14 07:45:28;;;;;;;1.52;1.42;;;13.10;99.90;;;;;;5026171;28;20045;-85
2023/10/14 07:47:56;;;;;;;1.20;1.20;;;13.10;99.90;;;;;;5033959;28;20102;-85
2023/10/14 07:50:22;;;;;;;1.25;1.25;;;13.20;99.90;;;;;;5035075;28;20053;-87
2023/10/14 07:52:47;;;;;;;1.20;1.20;;;13.30;99.90;;;;;;5013095;28;20402;-86
2023/10/14 07:55:22;;;;;;;1.30;1.30;;;13.30;99.90;;;;;;5032427;28;20052;-86
2023/10/14 07:57:48;;;;;;;1.50;1.40;;;13.40;99.90;;;;;;5015459;28;20033;-83
2023/10/14 08:00:15;;;;;;;1.50;1.40;;;13.50;99.90;;;;;;5014485;28;20094;-85
2023/10/14 08:02:41;;;;;;;1.23;1.23;;;13.60;99.90;;;;;;5035964;28;20080;-86
2023/10/14 08:05:08;;;;;;;1.20;1.20;;;13.60;99.90;;;;;;5026929;28;20207;-85
2023/10/14 08:07:40;;;;;;;1.10;1.10;;;13.80;99.90;;;;;;5027518;28;20657;-87
2023/10/14 08:10:17;;;;;;;1.30;1.30;;;13.90;99.90;;;;;;5050049;28;20512;-84
2023/10/14 08:12:50;;;;;;;1.20;1.20;;;13.80;99.90;;;;;;5017141;28;20106;-82
2023/10/14 08:15:17;;;;;;;1.20;1.20;;;13.90;99.90;;;;;;5027637;28;20041;-85
2023/10/14 08:17:44;;;;;;;1.15;1.15;;;13.80;99.90;;;;;;5028664;28;20777;-86
2023/10/14 08:20:13;;;;;;;1.20;1.20;;;13.90;99.90;;;;;;5039327;28;20061;-89
2023/10/14 08:22:41;;;;;;;1.20;1.20;;;13.90;99.90;;;;;;5029838;28;20041;-86
2023/10/14 08:25:07;;;;;;;1.05;1.05;;;14.00;99.90;;;;;;5040576;28;20045;-87
2023/10/14 08:27:34;;;;;;;1.02;1.02;;;14.10;99.90;;;;;;5022635;28;20083;-91
2023/10/14 08:30:02;;;;;;;1.00;1.00;;;14.20;99.90;;;;;;5036195;28;20064;-87
2023/10/14 08:32:29;;;;;;;1.10;1.10;;;14.20;99.90;;;;;;5018026;28;20048;-88
2023/10/14 08:34:54;;;;;;;1.10;1.10;;;14.30;99.90;;;;;;5030824;28;20700;-88
2023/10/14 08:37:20;;;;;;;1.00;1.00;;;14.50;99.90;;;;;;5014168;28;20045;-86
2023/10/14 08:39:46;;;;;;;1.10;1.10;;;14.60;99.90;;;;;;5060660;28;20495;-87
2023/10/14 08:42:12;;;;;;;1.10;1.10;;;14.60;99.90;;;;;;5024883;28;20052;-85
2023/10/14 08:44:42;;;;;;;1.10;1.10;;;14.60;99.90;;;;;;5037330;28;20415;-88
2023/10/14 08:47:13;;;;;;;1.20;1.20;;;14.70;99.90;;;;;;5031028;28;20716;-85
2023/10/14 08:49:42;;;;;;;1.10;1.10;;;14.70;99.90;;;;;;5029964;28;20041;-85
2023/10/14 08:52:16;;;;;;;1.00;1.00;;;14.80;99.90;;;;;;5063198;28;20048;-84
2023/10/14 08:54:43;;;;;;;1.08;1.08;;;14.80;99.90;;;;;;5065668;28;20048;-86
2023/10/14 08:57:09;;;;;;;0.98;0.98;;;14.90;99.90;;;;;;5011156;28;20041;-85
2023/10/14 08:59:34;;;;;;;1.00;1.00;;;14.90;99.90;;;;;;5027208;28;20325;-89
2023/10/14 09:02:01;;;;;;;1.00;1.00;;;14.90;99.90;;;;;;5029332;28;20049;-86
2023/10/14 09:04:28;;;;;;;1.00;1.00;;;15.10;99.90;;;;;;5042496;28;20041;-92
2023/10/14 09:07:00;;;;;;;1.00;1.00;;;15.00;99.90;;;;;;5015038;28;20041;-86
2023/10/14 09:09:26;;;;;;;1.08;1.08;;;15.30;99.90;;;;;;5031796;28;20145;-87
2023/10/14 09:11:52;;;;;;;1.10;1.10;;;15.40;99.90;;;;;;5054573;28;20168;-88
2023/10/14 09:14:18;;;;;;;0.95;0.95;;;15.40;99.90;;;;;;5031132;28;20063;-84
2023/10/14 09:16:48;;;;;;;0.80;0.80;;;15.10;99.90;;;;;;5036089;28;20045;-92
2023/10/14 09:19:15;;;;;;;0.90;0.90;;;14.40;99.90;;;;;;5035395;28;20045;-88
2023/10/14 09:21:45;;;;;;;1.00;1.00;;;14.30;99.90;;;;;;5034520;28;20102;-89
2023/10/14 09:24:11;;;;;;;1.10;1.10;;;13.90;99.90;;;;;;5033085;28;20037;-85
2023/10/14 09:26:38;;;;;;;1.30;1.30;;;13.80;99.90;;;;;;5013180;28;20665;-86
2023/10/14 09:29:04;;;;;;;1.00;1.00;;;13.40;99.90;;;;;;5015912;28;20179;-88
2023/10/14 09:31:30;;;;;;;1.50;1.40;;;13.10;99.90;;;;;;5033540;28;20143;-87
2023/10/14 09:33:55;;;;;;;1.15;1.15;;;13.00;99.90;;;;;;5047857;28;20625;-85
2023/10/14 09:36:22;;;;;;;1.15;1.15;;;13.10;99.90;;;;;;5013429;28;20052;-87
2023/10/14 09:38:49;;;;;;;1.00;1.00;;;13.20;99.90;;;;;;5057116;28;20082;-85
2023/10/14 09:41:15;;;;;;;1.08;1.08;;;13.70;99.90;;;;;;5049705;28;20076;-84
2023/10/14 09:43:48;;;;;;;1.00;1.00;;;14.00;99.90;;;;;;5030420;28;20052;-86
2023/10/14 09:46:17;;;;;;;1.10;1.10;;;14.20;99.90;;;;;;5023310;28;20044;-83
2023/10/14 09:48:44;;;;;;;1.02;1.02;;;14.50;99.90;;;;;;5033337;28;20098;-83
2023/10/14 09:51:12;;;;;;;1.00;1.00;;;14.60;99.90;;;;;;5024450;28;20049;-84
2023/10/14 09:53:38;;;;;;;1.20;1.20;;;15.00;99.90;;;;;;5062671;28;20049;-84
2023/10/14 09:56:11;;;;;;;1.00;1.00;;;15.10;99.90;;;;;;5064253;28;20098;-82
2023/10/14 09:58:43;;;;;;;1.10;1.10;;;15.30;99.90;;;;;;5042760;28;20673;-92
2023/10/14 10:01:19;;;;;;;1.00;1.00;;;15.60;99.90;;;;;;5034792;28;20103;-88
2023/10/14 10:03:49;;;;;;;1.00;1.00;;;15.50;99.90;;;;;;5017109;28;20076;-85
2023/10/14 10:06:52;;;;;;;1.10;1.10;;;15.60;99.90;;;;;;5016390;28;20037;-86
2023/10/14 10:09:49;;;;;;;1.00;1.00;;;15.90;99.90;;;;;;5028138;28;20057;-85
2023/10/14 10:12:21;;;;;;;1.00;1.00;;;16.00;99.90;;;;;;5029191;28;20056;-87
2023/10/14 10:14:56;;;;;;;1.08;1.08;;;16.00;99.90;;;;;;5033694;28;20099;-89
2023/10/14 10:17:24;;;;;;;1.10;1.10;;;15.70;99.90;;;;;;5061971;28;20060;-85
2023/10/14 10:20:09;;;;;;;1.10;1.10;;;16.10;99.90;;;;;;5022754;28;20047;-87
2023/10/14 10:22:51;;;;;;;0.90;0.90;;;16.10;99.90;;;;;;5010607;28;20045;-89
2023/10/14 10:25:20;;;;;;;0.93;0.93;;;16.60;99.90;;;;;;5037312;28;20118;-91
2023/10/14 10:27:55;;;;;;;1.10;1.10;;;16.70;99.90;;;;;;5067304;28;20060;-88
2023/10/14 10:30:22;;;;;;;1.30;1.30;;;15.50;99.90;;;;;;5019838;28;20080;-92
2023/10/14 10:32:51;;;;;;;1.50;1.40;;;14.60;99.90;;;;;;5046168;28;20083;-89
2023/10/14 10:35:21;;;;;;;1.60;1.50;;;14.20;99.90;;;;;;5048387;28;20033;-85
2023/10/14 10:37:54;;;;;;;1.27;1.27;;;13.60;99.90;;;;;;5058494;28;20055;-86
2023/10/14 10:40:23;;;;;;;1.10;1.10;;;13.30;99.90;;;;;;5011141;28;20502;-88
2023/10/14 10:42:58;;;;;;;1.25;1.25;;;13.20;99.90;;;;;;5025490;28;20059;-89
2023/10/14 10:45:32;;;;;;;1.25;1.25;;;12.80;99.90;;;;;;5020143;28;20047;-89
2023/10/14 10:48:05;;;;;;;1.45;1.40;;;12.50;99.90;;;;;;5019475;28;20444;-93
2023/10/14 10:51:14;;;;;;;1.23;1.23;;;12.30;99.90;;;;;;5053323;28;20045;-92
2023/10/14 10:54:20;;;;;;;;;;;;;;;;;;;;;
2023/10/14 10:57:00;;;;;;;1.00;1.00;;;12.20;99.90;;;;;;5038924;28;20486;-95
2023/10/14 10:59:29;;;;;;;1.00;1.00;;;13.10;99.90;;;;;;5047764;28;20033;-96
2023/10/14 11:02:18;;;;;;;1.10;1.10;;;13.60;99.90;;;;;;5043276;28;20490;-92
2023/10/14 11:04:45;;;;;;;1.10;1.10;;;14.10;99.90;;;;;;5055453;28;20029;-92
2023/10/14 11:07:13;;;;;;;1.20;1.20;;;14.60;99.90;;;;;;5037521;28;20044;-92
2023/10/14 11:09:43;;;;;;;1.20;1.20;;;15.00;99.90;;;;;;5019729;28;20380;-90
2023/10/14 11:12:39;;;;;;;1.20;1.20;;;15.30;99.90;;;;;;5021742;28;20145;-96
2023/10/14 11:15:18;;;;;;;1.20;1.20;;;15.70;99.90;;;;;;5013571;28;20095;-91
2023/10/14 11:17:44;;;;;;;1.02;1.02;;;16.20;99.90;;;;;;5021224;28;20046;-93
2023/10/14 11:20:14;;;;;;;1.00;1.00;;;16.50;99.90;;;;;;5045107;28;20044;-91
2023/10/14 11:22:43;;;;;;;1.10;1.08;;;16.70;99.90;;;;;;5051229;28;20657;-91
2023/10/14 11:25:11;;;;;;;1.10;1.10;;;17.00;99.90;;;;;;5025452;28;20451;-93
2023/10/14 11:27:36;;;;;;;0.73;0.73;;;16.80;99.90;;;;;;5018366;28;20041;-89
2023/10/14 11:30:06;;;;;;;0.90;0.90;;;16.50;99.90;;;;;;5021238;28;20045;-90
2023/10/14 11:32:44;;;;;;;1.00;1.00;;;16.00;99.90;;;;;;5035500;28;20520;-94
2023/10/14 11:35:13;;;;;;;0.90;0.90;;;16.10;99.90;;;;;;5034798;28;20548;-93
2023/10/14 11:37:48;;;;;;;0.95;0.95;;;16.00;99.90;;;;;;5056535;28;20494;-95
2023/10/14 11:40:15;;;;;;;0.90;0.90;;;16.00;99.90;;;;;;5031439;28;20053;-90
2023/10/14 11:42:41;;;;;;;1.00;1.00;;;16.00;99.90;;;;;;5020159;28;20045;-87
2023/10/14 11:45:07;;;;;;;0.90;0.90;;;16.40;99.90;;;;;;5013536;28;20084;-86
2023/10/14 11:47:41;;;;;;;1.27;1.27;;;16.20;99.90;;;;;;5037854;28;20076;-90
2023/10/14 11:50:13;;;;;;;;;;;15.50;99.90;;;;;;5036988;28;20048;-87
2023/10/14 11:52:43;;;;;;;1.35;1.33;;;15.20;99.90;;;;;;5016050;28;19925;-91
2023/10/14 11:55:15;;;;;;;1.25;1.25;;;15.20;99.90;;;;;;5018956;28;20060;-88
2023/10/14 11:57:42;;;;;;;1.23;1.23;;;14.90;99.90;;;;;;5023476;28;20040;-87
2023/10/14 12:00:10;;;;;;;1.20;1.20;;;14.90;99.90;;;;;;5036066;28;20044;-91
2023/10/14 12:02:37;;;;;;;1.10;1.10;;;14.70;99.90;;;;;;5015328;28;20060;-87
2023/10/14 12:05:04;;;;;;;1.40;1.35;;;14.80;99.90;;;;;;5029541;28;20053;-87
2023/10/14 12:07:33;;;;;;;1.20;1.20;;;14.30;99.90;;;;;;5020592;28;20045;-86
2023/10/14 12:10:00;;;;;;;0.93;0.93;;;14.20;99.90;;;;;;5019134;28;20052;-85
2023/10/14 12:12:26;;;;;;;1.00;1.00;;;14.50;99.90;;;;;;5029140;28;20076;-89
2023/10/14 12:14:52;;;;;;;1.00;1.00;;;15.00;99.90;;;;;;5062331;28;20103;-85
2023/10/14 12:17:18;;;;;;;1.00;1.00;;;15.30;99.90;;;;;;5036704;28;20083;-88
2023/10/14 12:19:44;;;;;;;0.90;0.90;;;15.10;99.90;;;;;;5017591;28;20051;-86
2023/10/14 12:22:10;;;;;;;0.90;0.90;;;14.80;99.90;;;;;;5016947;28;20044;-88
2023/10/14 12:24:35;;;;;;;1.10;1.10;;;14.60;99.90;;;;;;5028360;28;20040;-86
2023/10/14 12:27:02;;;;;;;1.00;1.00;;;14.20;99.90;;;;;;5030316;28;20134;-93
2023/10/14 12:29:29;;;;;;;0.90;0.90;;;14.10;99.90;;;;;;5047481;28;20044;-87
2023/10/14 12:31:59;;;;;;;1.02;1.02;;;14.40;99.90;;;;;;5020011;28;20495;-84
2023/10/14 12:34:25;;;;;;;1.00;1.00;;;15.00;99.90;;;;;;5031968;28;20490;-86
2023/10/14 12:36:52;;;;;;;1.00;1.00;;;15.50;99.90;;;;;;5045559;28;20052;-87
2023/10/14 12:39:19;;;;;;;1.00;1.00;;;15.50;99.90;;;;;;5033718;28;20083;-86
2023/10/14 12:41:47;;;;;;;1.00;1.00;;;15.50;99.90;;;;;;5059600;28;20201;-84
2023/10/14 12:44:14;;;;;;;1.00;1.00;;;15.30;99.90;;;;;;5043792;28;20079;-86
2023/10/14 12:46:40;;;;;;;1.00;1.00;;;15.60;99.90;;;;;;5014191;28;20482;-86
2023/10/14 12:49:10;;;;;;;1.08;1.08;;;15.30;99.90;;;;;;5068967;28;20052;-86
2023/10/14 12:51:43;;;;;;;1.10;1.10;;;14.70;99.90;;;;;;5053644;28;20620;-87
2023/10/14 12:54:16;;;;;;;0.90;0.90;;;14.40;99.90;;;;;;5033032;28;20124;-88
2023/10/14 12:56:47;;;;;;;1.10;1.10;;;14.40;99.90;;;;;;5026306;28;20140;-88
2023/10/14 12:59:13;;;;;;;1.10;1.10;;;15.00;99.90;;;;;;5036165;28;20103;-88
2023/10/14 13:01:58;;;;;;;1.20;1.20;;;15.30;99.90;;;;;;5021279;28;20041;-89
2023/10/14 13:04:27;;;;;;;1.00;1.00;;;15.60;99.90;;;;;;5033558;28;20060;-87
2023/10/14 13:06:58;;;;;;;1.00;1.00;;;15.90;99.90;;;;;;5022151;28;20143;-92
2023/10/14 13:09:35;;;;;;;1.05;1.05;;;15.90;99.90;;;;;;5019905;28;20077;-93
2023/10/14 13:12:08;;;;;;;1.00;1.00;;;16.00;99.90;;;;;;5024310;28;20877;-85
2023/10/14 13:14:37;;;;;;;1.10;1.10;;;16.00;99.90;;;;;;5022311;28;20407;-90
2023/10/14 13:17:06;;;;;;;1.00;1.00;;;15.50;99.90;;;;;;5026017;28;20044;-87
2023/10/14 13:19:35;;;;;;;1.17;1.17;;;15.10;99.90;;;;;;5072813;28;20044;-91
2023/10/14 13:22:11;;;;;;;1.30;1.30;;;15.00;99.90;;;;;;5025324;28;20544;-94
2023/10/14 13:24:38;;;;;;;1.30;1.30;;;14.80;99.90;;;;;;5038969;28;20041;-88
2023/10/14 13:27:04;;;;;;;0.98;0.98;;;14.60;99.90;;;;;;5017851;28;20040;-90
2023/10/14 13:29:30;;;;;;;1.00;1.00;;;14.70;99.90;;;;;;5036283;28;20053;-87
2023/10/14 13:31:56;;;;;;;0.82;0.82;;;15.10;99.90;;;;;;5044522;28;20049;-90
2023/10/14 13:34:25;;;;;;;1.00;1.00;;;15.20;99.90;;;;;;5034082;28;20111;-94
2023/10/14 13:36:51;;;;;;;1.05;1.05;;;15.50;99.90;;;;;;5022845;28;20063;-93
2023/10/14 13:39:17;;;;;;;1.10;1.10;;;15.70;99.90;;;;;;5030651;28;20045;-84
2023/10/14 13:41:43;;;;;;;1.02;1.02;;;15.40;99.90;;;;;;5023212;28;20110;-85
2023/10/14 13:44:12;;;;;;;0.90;0.90;;;14.90;99.90;;;;;;5038351;28;20564;-92
2023/10/14 13:46:41;;;;;;;1.20;1.20;;;14.80;99.90;;;;;;5034069;28;20045;-93
2023/10/14 13:49:08;;;;;;;1.00;1.00;;;14.60;99.90;;;;;;5022217;28;20458;-84
2023/10/14 13:51:34;;;;;;;1.00;1.00;;;14.40;99.90;;;;;;5045196;28;20049;-87
2023/10/14 13:54:00;;;;;;;1.05;1.05;;;14.20;99.90;;;;;;5033667;28;20045;-88
2023/10/14 13:56:26;;;;;;;1.00;1.00;;;14.10;99.90;;;;;;5017666;28;20106;-87
2023/10/14 13:58:52;;;;;;;0.90;0.90;;;14.20;99.90;;;;;;5036476;28;20053;-85
2023/10/14 14:01:18;;;;;;;1.00;1.00;;;14.60;99.90;;;;;;5018088;28;20662;-87